createdAt,value
2022-12-25T00:02:04.816Z,3.00
2022-12-25T00:04:32.777Z,2.80
2022-12-25T00:07:01.056Z,3.27
2022-12-25T00:09:29.235Z,3.57
2022-12-25T00:11:57.250Z,2.93
2022-12-25T00:14:26.618Z,2.83
2022-12-25T00:16:54.620Z,2.77
2022-12-25T00:19:22.637Z,2.80
2022-12-25T00:21:50.733Z,3.17
2022-12-25T00:24:18.701Z,2.90
2022-12-25T00:26:46.798Z,2.70
2022-12-25T00:29:14.828Z,2.87
2022-12-25T00:31:44.357Z,3.50
2022-12-25T00:34:12.392Z,3.30
2022-12-25T00:36:42.132Z,3.43
2022-12-25T00:39:10.430Z,3.50
2022-12-25T00:41:55.904Z,3.40
2022-12-25T00:44:23.900Z,4.20
2022-12-25T00:46:53.290Z,4.33
2022-12-25T00:49:23.655Z,4.10
2022-12-25T00:51:51.822Z,3.80
2022-12-25T00:54:20.490Z,4.37
2022-12-25T00:56:48.553Z,3.90
2022-12-25T00:59:16.669Z,3.93
2022-12-25T01:01:44.807Z,4.17
2022-12-25T01:04:14.517Z,3.37
2022-12-25T01:06:42.552Z,4.80
2022-12-25T01:09:28.970Z,4.07
2022-12-25T01:11:56.940Z,3.63
2022-12-25T01:14:24.903Z,3.77
2022-12-25T01:16:52.885Z,3.63
2022-12-25T01:19:22.242Z,3.90
2022-12-25T01:21:52.279Z,3.73
2022-12-25T01:24:20.255Z,3.33
2022-12-25T01:26:48.600Z,3.67
2022-12-25T01:29:18.722Z,4.10
2022-12-25T01:31:49.344Z,3.73
2022-12-25T01:34:17.324Z,3.93
2022-12-25T01:36:49.410Z,3.43
2022-12-25T01:39:17.372Z,3.20
2022-12-25T01:41:45.384Z,3.90
2022-12-25T01:44:46.782Z,3.70
2022-12-25T01:47:16.250Z,3.70
2022-12-25T01:49:47.347Z,3.23
2022-12-25T01:52:23.871Z,3.73
2022-12-25T01:54:55.603Z,3.37
2022-12-25T01:57:26.841Z,3.33
2022-12-25T01:59:57.412Z,4.37
2022-12-25T02:02:35.872Z,3.50
2022-12-25T02:05:11.033Z,3.90
2022-12-25T02:07:41.707Z,3.13
2022-12-25T02:10:11.354Z,4.00
2022-12-25T02:12:40.025Z,3.77
2022-12-25T02:15:11.914Z,3.70
2022-12-25T02:17:47.381Z,3.47
2022-12-25T02:20:42.643Z,3.93
2022-12-25T02:23:37.492Z,3.40
2022-12-25T02:26:16.783Z,3.13
2022-12-25T02:28:52.607Z,3.13
2022-12-25T02:31:28.866Z,3.00
2022-12-25T02:34:04.639Z,3.10
2022-12-25T02:36:39.428Z,2.97
2022-12-25T02:39:34.658Z,2.90
2022-12-25T02:42:07.051Z,3.47
2022-12-25T02:44:57.472Z,3.57
2022-12-25T02:47:39.904Z,3.27
2022-12-25T02:50:27.649Z,3.47
2022-12-25T02:53:16.109Z,3.40
2022-12-25T02:56:03.773Z,3.20
2022-12-25T02:58:50.371Z,2.97
2022-12-25T03:01:41.540Z,3.17
2022-12-25T03:04:31.800Z,3.40
2022-12-25T03:07:05.699Z,3.47
2022-12-25T03:09:56.331Z,3.00
2022-12-25T03:12:38.490Z,3.03
2022-12-25T03:15:27.106Z,3.20
2022-12-25T03:17:57.987Z,3.13
2022-12-25T03:20:43.619Z,3.07
2022-12-25T03:23:31.030Z,3.13
2022-12-25T03:26:16.642Z,3.57
2022-12-25T03:28:44.622Z,3.20
2022-12-25T03:31:17.346Z,2.80
2022-12-25T03:34:23.722Z,3.27
2022-12-25T03:37:10.223Z,3.07
2022-12-25T03:40:03.164Z,2.77
2022-12-25T03:43:09.713Z,2.70
2022-12-25T03:46:02.165Z,2.93
2022-12-25T03:48:52.489Z,3.10
2022-12-25T03:51:45.320Z,2.63
2022-12-25T03:54:32.924Z,2.97
2022-12-25T03:57:18.777Z,3.50
2022-12-25T04:00:04.091Z,4.23
2022-12-25T04:02:50.101Z,3.90
2022-12-25T04:05:32.183Z,4.53
2022-12-25T04:08:18.934Z,3.90
2022-12-25T04:11:04.407Z,4.43
2022-12-25T04:13:49.998Z,4.63
2022-12-25T04:16:35.456Z,4.00
2022-12-25T04:19:21.189Z,4.40
2022-12-25T04:22:06.515Z,3.93
2022-12-25T04:24:53.358Z,3.10
2022-12-25T04:27:50.093Z,3.30
2022-12-25T04:30:35.591Z,2.93
2022-12-25T04:33:21.275Z,2.33
2022-12-25T04:36:07.312Z,2.20
2022-12-25T04:38:35.731Z,1.90
2022-12-25T04:41:05.329Z,2.30
2022-12-25T04:43:33.341Z,2.20
2022-12-25T04:46:02.561Z,2.03
2022-12-25T04:48:32.657Z,2.03
2022-12-25T04:51:11.790Z,1.80
2022-12-25T04:53:39.805Z,1.80
2022-12-25T04:56:09.276Z,1.67
2022-12-25T04:58:37.373Z,1.70
2022-12-25T05:01:06.363Z,1.97
2022-12-25T05:03:34.673Z,1.60
2022-12-25T05:06:04.084Z,1.80
2022-12-25T05:08:33.341Z,1.73
2022-12-25T05:11:01.518Z,2.30
2022-12-25T05:13:30.885Z,1.90
2022-12-25T05:15:58.980Z,1.77
2022-12-25T05:18:27.061Z,1.90
2022-12-25T05:20:55.730Z,2.00
2022-12-25T05:23:24.059Z,2.17
2022-12-25T05:25:52.074Z,2.90
2022-12-25T05:28:20.159Z,2.63
2022-12-25T05:30:49.723Z,1.93
2022-12-25T05:33:17.941Z,1.77
2022-12-25T05:35:45.914Z,1.60
2022-12-25T05:38:13.894Z,2.00
2022-12-25T05:40:41.920Z,1.70
2022-12-25T05:43:10.395Z,1.50
2022-12-25T05:45:38.610Z,1.70
2022-12-25T05:48:08.292Z,1.57
2022-12-25T05:50:37.962Z,1.90
2022-12-25T05:53:08.601Z,1.80
2022-12-25T05:55:37.596Z,1.70
2022-12-25T05:58:05.937Z,2.20
2022-12-25T06:00:34.276Z,2.50
2022-12-25T06:03:02.719Z,2.37
2022-12-25T06:05:32.516Z,2.57
2022-12-25T06:08:00.518Z,2.70
2022-12-25T06:10:28.515Z,2.30
2022-12-25T06:12:56.490Z,2.07
2022-12-25T06:15:24.490Z,2.40
2022-12-25T06:17:52.496Z,2.60
2022-12-25T06:20:20.587Z,2.30
2022-12-25T06:22:49.972Z,2.60
2022-12-25T06:25:18.261Z,3.03
2022-12-25T06:27:46.271Z,2.63
2022-12-25T06:30:14.969Z,2.67
2022-12-25T06:32:42.968Z,2.47
2022-12-25T06:35:11.143Z,2.30
2022-12-25T06:37:39.120Z,2.30
2022-12-25T06:40:10.306Z,2.67
2022-12-25T06:42:38.401Z,2.13
2022-12-25T06:45:07.163Z,2.17
2022-12-25T06:47:35.220Z,2.40
2022-12-25T06:50:03.385Z,2.17
2022-12-25T06:52:33.108Z,2.30
2022-12-25T06:55:01.219Z,2.77
2022-12-25T06:57:30.613Z,2.23
2022-12-25T06:59:58.615Z,2.80
2022-12-25T07:02:26.878Z,2.40
2022-12-25T07:04:55.543Z,2.50
2022-12-25T07:07:23.711Z,2.27
2022-12-25T07:09:51.818Z,2.20
2022-12-25T07:12:21.569Z,2.60
2022-12-25T07:14:51.564Z,2.83
2022-12-25T07:17:20.672Z,3.83
2022-12-25T07:19:49.091Z,3.77
2022-12-25T07:22:17.990Z,2.93
2022-12-25T07:24:46.072Z,3.03
2022-12-25T07:27:14.300Z,3.43
2022-12-25T07:29:42.363Z,3.27
2022-12-25T07:32:11.790Z,3.67
2022-12-25T07:34:39.852Z,3.40
2022-12-25T07:37:07.824Z,3.03
2022-12-25T07:39:35.850Z,4.00
2022-12-25T07:42:03.974Z,3.50
2022-12-25T07:44:31.983Z,3.57
2022-12-25T07:46:59.955Z,3.10
2022-12-25T07:49:32.321Z,3.07
2022-12-25T07:52:10.399Z,3.17
2022-12-25T07:54:38.416Z,3.27
2022-12-25T07:57:06.462Z,3.73
2022-12-25T07:59:34.459Z,2.97
2022-12-25T08:02:02.614Z,3.03
2022-12-25T08:04:32.391Z,2.93
2022-12-25T08:07:00.400Z,3.33
2022-12-25T08:09:28.740Z,3.10
2022-12-25T08:11:56.714Z,2.67
2022-12-25T08:14:24.709Z,2.87
2022-12-25T08:16:52.780Z,2.53
2022-12-25T08:19:20.942Z,2.50
2022-12-25T08:21:50.287Z,2.97
2022-12-25T08:24:18.496Z,2.47
2022-12-25T08:26:46.501Z,2.80
2022-12-25T08:29:14.615Z,2.53
2022-12-25T08:31:46.366Z,2.27
2022-12-25T08:34:15.024Z,2.77
2022-12-25T08:36:43.103Z,2.50
2022-12-25T08:39:12.538Z,2.67
2022-12-25T08:41:40.558Z,2.53
2022-12-25T08:44:08.777Z,2.43
2022-12-25T08:46:36.916Z,2.50
2022-12-25T08:49:05.012Z,2.93
2022-12-25T08:51:33.153Z,3.40
2022-12-25T08:54:02.241Z,2.97
2022-12-25T08:56:31.658Z,3.80
2022-12-25T08:58:59.701Z,4.00
2022-12-25T09:01:27.754Z,3.13
2022-12-25T09:03:55.912Z,3.43
2022-12-25T09:06:23.904Z,3.50
2022-12-25T09:08:51.920Z,3.77
2022-12-25T09:11:21.503Z,3.20
2022-12-25T09:13:51.196Z,3.70
2022-12-25T09:16:21.496Z,4.63
2022-12-25T09:18:49.849Z,4.33
2022-12-25T09:21:18.422Z,4.43
2022-12-25T09:23:46.731Z,4.50
2022-12-25T09:26:16.520Z,3.80
2022-12-25T09:28:50.566Z,4.03
2022-12-25T09:31:21.721Z,4.10
2022-12-25T09:33:49.947Z,5.50
2022-12-25T09:36:17.978Z,4.50
2022-12-25T09:38:46.067Z,4.30
2022-12-25T09:41:18.222Z,4.20
2022-12-25T09:43:49.905Z,4.10
2022-12-25T09:46:23.131Z,4.40
2022-12-25T09:49:03.529Z,4.33
2022-12-25T09:51:35.205Z,4.33
2022-12-25T09:54:10.217Z,4.83
2022-12-25T09:56:38.665Z,5.63
2022-12-25T09:59:18.289Z,4.93
2022-12-25T10:01:59.299Z,4.40
2022-12-25T10:04:42.290Z,4.90
2022-12-25T10:07:19.466Z,4.33
2022-12-25T10:10:04.153Z,4.50
2022-12-25T10:12:39.618Z,4.47
2022-12-25T10:15:21.487Z,4.43
2022-12-25T10:18:21.556Z,4.03
2022-12-25T10:20:53.457Z,4.50
2022-12-25T10:23:26.663Z,4.53
2022-12-25T10:25:55.419Z,4.90
2022-12-25T10:28:29.525Z,5.20
2022-12-25T10:31:02.690Z,5.03
2022-12-25T10:33:32.451Z,5.03
2022-12-25T10:36:00.927Z,5.03
2022-12-25T10:38:28.944Z,5.40
2022-12-25T10:41:10.086Z,5.03
2022-12-25T10:43:42.720Z,4.50
2022-12-25T10:46:12.904Z,4.20
2022-12-25T10:48:45.258Z,4.57
2022-12-25T10:51:13.383Z,4.77
2022-12-25T10:53:42.397Z,4.53
2022-12-25T10:56:18.463Z,4.57
2022-12-25T10:58:46.765Z,3.97
2022-12-25T11:01:15.119Z,4.57
2022-12-25T11:03:48.493Z,4.10
2022-12-25T11:06:25.347Z,4.37
2022-12-25T11:08:56.211Z,3.40
2022-12-25T11:11:24.732Z,4.30
2022-12-25T11:13:55.565Z,3.93
2022-12-25T11:16:32.599Z,4.07
2022-12-25T11:19:02.704Z,4.30
2022-12-25T11:21:34.675Z,3.13
2022-12-25T11:24:04.333Z,3.53
2022-12-25T11:26:37.288Z,3.37
2022-12-25T11:29:11.741Z,3.37
2022-12-25T11:31:44.124Z,3.73
2022-12-25T11:34:27.067Z,3.33
2022-12-25T11:36:55.237Z,4.00
2022-12-25T11:39:27.211Z,3.57
2022-12-25T11:41:59.265Z,3.17
2022-12-25T11:44:37.510Z,3.60
2022-12-25T11:47:14.720Z,3.07
2022-12-25T11:49:51.515Z,3.47
2022-12-25T11:52:22.084Z,3.70
2022-12-25T11:54:56.989Z,3.30
2022-12-25T11:57:27.799Z,3.20
2022-12-25T12:00:00.984Z,3.03
2022-12-25T12:02:37.991Z,3.73
2022-12-25T12:05:16.344Z,2.93
2022-12-25T12:07:57.122Z,3.73
2022-12-25T12:10:32.989Z,3.80
2022-12-25T12:13:14.575Z,3.97
2022-12-25T12:15:44.768Z,3.97
2022-12-25T12:18:22.156Z,3.20
2022-12-25T12:21:02.936Z,4.20
2022-12-25T12:23:32.859Z,4.60
2022-12-25T12:26:01.205Z,3.93
2022-12-25T12:28:33.817Z,3.60
2022-12-25T12:31:03.978Z,3.90
2022-12-25T12:33:37.297Z,3.93
2022-12-25T12:36:08.101Z,3.30
2022-12-25T12:38:37.171Z,3.30
2022-12-25T12:41:08.336Z,4.40
2022-12-25T12:43:39.725Z,4.00
2022-12-25T12:46:15.992Z,3.77
2022-12-25T12:48:46.241Z,3.70
2022-12-25T12:51:28.123Z,3.53
2022-12-25T12:54:17.254Z,3.50
2022-12-25T12:56:57.742Z,4.07
2022-12-25T12:59:26.319Z,4.10
2022-12-25T13:02:06.567Z,3.80
2022-12-25T13:04:50.727Z,4.20
2022-12-25T13:07:43.985Z,4.33
2022-12-25T13:10:24.313Z,3.80
2022-12-25T13:12:55.187Z,4.03
2022-12-25T13:15:26.038Z,4.03
2022-12-25T13:17:54.663Z,4.40
2022-12-25T13:20:28.321Z,4.57
2022-12-25T13:22:57.658Z,4.00
2022-12-25T13:25:25.764Z,3.60
2022-12-25T13:27:57.869Z,4.03
2022-12-25T13:30:26.863Z,4.13
2022-12-25T13:32:54.940Z,4.20
2022-12-25T13:35:24.416Z,3.83
2022-12-25T13:37:53.721Z,3.97
2022-12-25T13:40:28.109Z,4.90
2022-12-25T13:42:59.527Z,5.07
2022-12-25T13:45:29.594Z,4.57
2022-12-25T13:47:57.973Z,5.60
2022-12-25T13:50:28.636Z,4.83
2022-12-25T13:52:58.756Z,4.30
2022-12-25T13:55:30.542Z,4.50
2022-12-25T13:58:00.253Z,5.10
2022-12-25T14:00:33.611Z,3.70
2022-12-25T14:03:01.883Z,4.07
2022-12-25T14:05:37.936Z,4.53
2022-12-25T14:08:16.338Z,4.27
2022-12-25T14:10:49.313Z,4.63
2022-12-25T14:13:18.950Z,4.47
2022-12-25T14:15:48.918Z,4.20
2022-12-25T14:18:18.266Z,4.47
2022-12-25T14:20:59.019Z,4.43
2022-12-25T14:23:27.940Z,5.50
2022-12-25T14:25:57.323Z,4.40
2022-12-25T14:28:32.387Z,6.00
2022-12-25T14:31:01.213Z,4.27
2022-12-25T14:33:32.655Z,4.50
2022-12-25T14:36:00.729Z,4.00
2022-12-25T14:38:32.445Z,4.23
2022-12-25T14:41:04.506Z,4.30
2022-12-25T14:43:34.515Z,4.30
2022-12-25T14:46:06.193Z,4.03
2022-12-25T14:48:34.700Z,4.57
2022-12-25T14:51:05.674Z,4.27
2022-12-25T14:53:37.279Z,3.70
2022-12-25T14:56:09.404Z,5.50
2022-12-25T14:58:47.839Z,4.30
2022-12-25T15:01:22.835Z,5.03
2022-12-25T15:03:50.977Z,4.23
2022-12-25T15:06:21.767Z,4.97
2022-12-25T15:09:00.550Z,4.97
2022-12-25T15:11:29.986Z,4.83
2022-12-25T15:13:58.871Z,5.10
2022-12-25T15:16:29.792Z,5.33
2022-12-25T15:19:00.462Z,4.10
2022-12-25T15:21:29.913Z,4.70
2022-12-25T15:23:59.943Z,4.93
2022-12-25T15:26:30.753Z,4.60
2022-12-25T15:28:59.284Z,4.97
2022-12-25T15:31:28.904Z,4.70
2022-12-25T15:33:58.465Z,5.00
2022-12-25T15:36:27.211Z,5.00
2022-12-25T15:38:55.622Z,4.80
2022-12-25T15:41:44.682Z,4.67
2022-12-25T15:44:15.285Z,5.53
2022-12-25T15:46:43.668Z,5.40
2022-12-25T15:49:11.979Z,4.90
2022-12-25T15:51:40.209Z,4.90
2022-12-25T15:54:08.265Z,4.83
2022-12-25T15:56:41.439Z,5.47
2022-12-25T15:59:10.779Z,5.03
2022-12-25T16:01:42.480Z,4.67
2022-12-25T16:04:10.526Z,5.90
2022-12-25T16:06:38.724Z,5.40
2022-12-25T16:09:07.158Z,5.83
2022-12-25T16:11:35.466Z,6.07
2022-12-25T16:14:03.446Z,5.23
2022-12-25T16:16:31.543Z,5.77
2022-12-25T16:19:01.219Z,5.63
2022-12-25T16:21:36.233Z,6.37
2022-12-25T16:24:04.391Z,6.17
2022-12-25T16:26:33.310Z,6.97
2022-12-25T16:29:06.765Z,7.33
2022-12-25T16:31:35.652Z,7.10
2022-12-25T16:34:05.497Z,6.70
2022-12-25T16:36:34.268Z,7.17
2022-12-25T16:39:02.338Z,6.70
2022-12-25T16:41:30.360Z,8.17
2022-12-25T16:43:58.321Z,6.70
2022-12-25T16:46:26.397Z,6.63
2022-12-25T16:48:54.443Z,5.40
2022-12-25T16:51:24.505Z,6.30
2022-12-25T16:53:53.240Z,5.90
2022-12-25T16:56:25.298Z,6.90
2022-12-25T16:58:53.472Z,6.97
2022-12-25T17:01:23.873Z,6.37
2022-12-25T17:03:52.636Z,7.80
2022-12-25T17:06:23.947Z,7.70
2022-12-25T17:08:53.156Z,6.53
2022-12-25T17:11:26.197Z,6.93
2022-12-25T17:13:55.404Z,7.37
2022-12-25T17:16:25.693Z,6.73
2022-12-25T17:18:57.241Z,6.83
2022-12-25T17:21:27.555Z,6.77
2022-12-25T17:24:01.638Z,6.53
2022-12-25T17:26:31.796Z,6.67
2022-12-25T17:29:00.131Z,6.87
2022-12-25T17:31:28.507Z,7.00
2022-12-25T17:33:56.572Z,6.93
2022-12-25T17:36:26.356Z,6.53
2022-12-25T17:38:54.529Z,6.63
2022-12-25T17:41:22.952Z,6.93
2022-12-25T17:43:50.970Z,6.63
2022-12-25T17:46:20.937Z,6.77
2022-12-25T17:48:50.408Z,6.90
2022-12-25T17:51:21.171Z,7.23
2022-12-25T17:53:53.341Z,6.97
2022-12-25T17:56:22.491Z,7.23
2022-12-25T17:58:52.930Z,8.07
2022-12-25T18:01:22.531Z,7.30
2022-12-25T18:03:51.888Z,7.77
2022-12-25T18:06:25.707Z,8.30
2022-12-25T18:08:55.833Z,7.20
2022-12-25T18:11:27.632Z,7.27
2022-12-25T18:13:57.912Z,7.07
2022-12-25T18:16:27.538Z,6.47
2022-12-25T18:18:55.655Z,7.60
2022-12-25T18:21:27.522Z,7.13
2022-12-25T18:23:57.376Z,6.67
2022-12-25T18:26:28.657Z,6.33
2022-12-25T18:28:57.433Z,6.90
2022-12-25T18:31:27.887Z,6.13
2022-12-25T18:33:56.116Z,7.77
2022-12-25T18:36:26.275Z,7.17
2022-12-25T18:38:57.213Z,6.63
2022-12-25T18:41:25.782Z,7.43
2022-12-25T18:43:55.905Z,7.00
2022-12-25T18:46:26.346Z,6.93
2022-12-25T18:48:55.726Z,7.50
2022-12-25T18:51:24.426Z,7.67
2022-12-25T18:53:53.093Z,7.57
2022-12-25T18:56:25.945Z,7.47
2022-12-25T18:58:54.442Z,7.47
2022-12-25T19:01:24.670Z,7.90
2022-12-25T19:03:57.317Z,8.73
2022-12-25T19:06:33.288Z,7.77
2022-12-25T19:09:09.369Z,7.77
2022-12-25T19:11:46.153Z,7.20
2022-12-25T19:14:15.907Z,7.53
2022-12-25T19:16:44.283Z,7.73
2022-12-25T19:19:13.016Z,7.83
2022-12-25T19:21:41.589Z,7.67
2022-12-25T19:24:10.129Z,8.20
2022-12-25T19:26:39.633Z,8.40
2022-12-25T19:29:07.584Z,7.60
2022-12-25T19:31:37.147Z,7.83
2022-12-25T19:34:06.711Z,7.80
2022-12-25T19:36:34.928Z,7.73
2022-12-25T19:39:03.088Z,8.27
2022-12-25T19:41:31.221Z,9.90
2022-12-25T19:44:00.837Z,9.00
2022-12-25T19:46:30.799Z,8.67
2022-12-25T19:49:03.965Z,8.33
2022-12-25T19:51:34.585Z,8.10
2022-12-25T19:54:03.846Z,8.17
2022-12-25T19:56:32.366Z,9.63
2022-12-25T19:59:01.830Z,9.00
2022-12-25T20:01:31.144Z,8.03
2022-12-25T20:03:59.524Z,8.13
2022-12-25T20:06:30.182Z,7.90
2022-12-25T20:09:00.954Z,8.07
2022-12-25T20:11:30.454Z,7.53
2022-12-25T20:13:58.825Z,8.50
2022-12-25T20:16:28.290Z,7.83
2022-12-25T20:18:58.173Z,16.87
2022-12-25T20:21:27.676Z,8.30
2022-12-25T20:23:55.833Z,7.97
2022-12-25T20:26:27.279Z,7.70
2022-12-25T20:28:55.772Z,7.70
2022-12-25T20:31:27.389Z,7.47
2022-12-25T20:33:58.100Z,8.77
2022-12-25T20:36:29.675Z,8.00
2022-12-25T20:39:02.647Z,7.70
2022-12-25T20:41:30.712Z,9.17
2022-12-25T20:43:59.095Z,9.57
2022-12-25T20:46:28.180Z,8.23
2022-12-25T20:48:57.535Z,7.80
2022-12-25T20:51:27.369Z,9.13
2022-12-25T20:53:56.260Z,20.40
2022-12-25T20:56:27.439Z,9.63
2022-12-25T20:58:56.136Z,10.30
2022-12-25T21:01:25.429Z,10.67
2022-12-25T21:03:57.785Z,8.77
2022-12-25T21:06:28.810Z,8.57
2022-12-25T21:08:57.788Z,9.83
2022-12-25T21:11:26.777Z,9.67
2022-12-25T21:13:55.318Z,8.37
2022-12-25T21:16:25.174Z,9.33
2022-12-25T21:18:54.708Z,8.27
2022-12-25T21:21:23.239Z,8.07
2022-12-25T21:23:52.736Z,8.17
2022-12-25T21:26:23.775Z,8.70
2022-12-25T21:28:53.616Z,7.90
2022-12-25T21:31:22.894Z,8.17
2022-12-25T21:33:52.809Z,9.23
2022-12-25T21:36:24.161Z,8.40
2022-12-25T21:38:58.297Z,8.73
2022-12-25T21:41:27.508Z,7.60
2022-12-25T21:43:55.997Z,7.43
2022-12-25T21:46:24.818Z,9.70
2022-12-25T21:48:52.932Z,7.90
2022-12-25T21:51:40.862Z,8.60
2022-12-25T21:54:10.540Z,9.53
2022-12-25T21:56:44.613Z,9.93
2022-12-25T21:59:15.834Z,9.33
2022-12-25T22:01:44.474Z,8.93
2022-12-25T22:04:13.475Z,8.27
2022-12-25T22:06:59.460Z,7.97
2022-12-25T22:09:29.012Z,7.83
2022-12-25T22:12:14.638Z,8.10
2022-12-25T22:14:56.287Z,7.17
2022-12-25T22:17:45.013Z,7.97
2022-12-25T22:20:14.987Z,7.00
2022-12-25T22:22:43.205Z,7.70
2022-12-25T22:25:13.418Z,7.83
2022-12-25T22:27:43.048Z,7.77
2022-12-25T22:30:48.430Z,6.80
2022-12-25T22:33:16.483Z,8.27
2022-12-25T22:35:44.499Z,8.30
2022-12-25T22:38:12.651Z,7.93
2022-12-25T22:40:45.707Z,8.03
2022-12-25T22:43:13.725Z,8.20
2022-12-25T22:45:41.737Z,8.30
2022-12-25T22:48:09.704Z,7.90
2022-12-25T22:50:37.721Z,7.90
2022-12-25T22:53:05.775Z,7.57
2022-12-25T22:55:33.828Z,8.17
2022-12-25T22:58:03.184Z,7.33
2022-12-25T23:00:31.158Z,7.30
2022-12-25T23:02:59.352Z,8.57
2022-12-25T23:05:27.429Z,7.50
2022-12-25T23:07:55.540Z,7.03
2022-12-25T23:10:23.514Z,7.10
2022-12-25T23:13:09.067Z,7.00
2022-12-25T23:15:40.662Z,6.90
2022-12-25T23:18:26.225Z,6.97
2022-12-25T23:21:11.804Z,7.27
2022-12-25T23:23:57.286Z,7.03
2022-12-25T23:26:25.248Z,7.37
2022-12-25T23:29:10.703Z,7.03
2022-12-25T23:31:42.427Z,7.43
2022-12-25T23:34:11.115Z,7.20
2022-12-25T23:36:39.084Z,6.47
2022-12-25T23:39:10.175Z,6.93
2022-12-25T23:41:39.047Z,7.60
2022-12-25T23:44:07.329Z,7.03
2022-12-25T23:46:36.418Z,6.50
2022-12-25T23:49:06.092Z,6.93
2022-12-25T23:51:35.867Z,7.57
2022-12-25T23:54:03.890Z,6.80
2022-12-25T23:56:31.932Z,6.20
2022-12-25T23:59:00.271Z,6.83
